createdAt,value
2022-10-18T00:00:53.215Z,26.83
2022-10-18T00:01:58.118Z,27.95
2022-10-18T00:03:01.185Z,37.63
2022-10-18T00:04:05.111Z,23.42
2022-10-18T00:05:08.728Z,30.17
2022-10-18T00:06:12.941Z,33.85
2022-10-18T00:07:15.827Z,38.47
2022-10-18T00:08:20.480Z,37.08
2022-10-18T00:09:23.579Z,59.75
2022-10-18T00:10:27.873Z,29.95
2022-10-18T00:11:30.799Z,32.08
2022-10-18T00:12:35.851Z,32.17
2022-10-18T00:13:38.927Z,80.57
2022-10-18T00:14:44.370Z,34.80
2022-10-18T00:15:51.180Z,61.20
2022-10-18T00:16:55.237Z,69.15
2022-10-18T00:17:58.191Z,38.80
2022-10-18T00:19:02.114Z,27.08
2022-10-18T00:20:06.788Z,117.40
2022-10-18T00:21:13.533Z,33.88
2022-10-18T00:22:16.460Z,30.63
2022-10-18T00:23:20.401Z,49.20
2022-10-18T00:24:23.259Z,29.48
2022-10-18T00:25:27.347Z,28.90
2022-10-18T00:26:31.397Z,34.30
2022-10-18T00:27:36.940Z,41.30
2022-10-18T00:28:40.631Z,30.20
2022-10-18T00:29:46.069Z,36.25
2022-10-18T00:31:58.006Z,28.00
2022-10-18T00:33:00.868Z,51.15
2022-10-18T00:34:06.317Z,36.50
2022-10-18T00:35:09.931Z,44.20
2022-10-18T00:36:14.662Z,48.58
2022-10-18T00:37:17.880Z,42.42
2022-10-18T00:38:21.813Z,56.28
2022-10-18T00:39:24.756Z,40.35
2022-10-18T00:40:28.821Z,59.28
2022-10-18T00:41:33.013Z,138.82
2022-10-18T00:42:39.858Z,35.03
2022-10-18T00:43:53.250Z,38.00
2022-10-18T00:45:08.997Z,56.15
2022-10-18T00:46:11.941Z,71.47
2022-10-18T00:47:18.225Z,35.95
2022-10-18T00:48:22.479Z,35.88
2022-10-18T00:49:28.329Z,41.80
2022-10-18T00:50:34.077Z,41.60
2022-10-18T00:51:41.811Z,40.75
2022-10-18T00:52:49.659Z,62.33
2022-10-18T00:53:52.821Z,134.60
2022-10-18T00:54:57.492Z,185.65
2022-10-18T00:56:01.560Z,191.13
2022-10-18T00:57:05.422Z,37.28
2022-10-18T00:58:09.979Z,37.72
2022-10-18T00:59:14.709Z,42.10
2022-10-18T01:00:20.758Z,38.55
2022-10-18T01:01:27.486Z,93.07
2022-10-18T01:02:34.031Z,34.20
2022-10-18T01:03:39.041Z,37.92
2022-10-18T01:04:42.157Z,33.95
2022-10-18T01:05:48.388Z,29.33
2022-10-18T01:08:12.120Z,32.97
2022-10-18T01:09:23.101Z,33.38
2022-10-18T01:10:31.150Z,33.45
2022-10-18T01:11:44.857Z,38.83
2022-10-18T01:12:54.263Z,34.35
2022-10-18T01:14:04.198Z,35.85
2022-10-18T01:15:12.932Z,40.63
2022-10-18T01:16:20.892Z,35.63
2022-10-18T01:17:31.829Z,39.45
2022-10-18T01:18:38.348Z,43.90
2022-10-18T01:20:17.081Z,35.55
2022-10-18T01:21:36.478Z,31.90
2022-10-18T01:22:43.849Z,26.20
2022-10-18T01:24:04.220Z,30.58
2022-10-18T01:25:17.438Z,37.88
2022-10-18T01:26:30.683Z,32.92
2022-10-18T01:27:43.250Z,86.30
2022-10-18T01:28:54.874Z,73.30
2022-10-18T01:30:30.180Z,144.15
2022-10-18T01:31:39.650Z,64.50
2022-10-18T01:32:46.691Z,43.05
2022-10-18T01:33:53.659Z,72.68
2022-10-18T01:34:59.830Z,88.78
2022-10-18T01:36:08.540Z,67.22
2022-10-18T01:37:15.101Z,57.28
2022-10-18T01:38:20.294Z,59.05
2022-10-18T01:39:26.368Z,31.10
2022-10-18T01:40:31.252Z,91.22
2022-10-18T01:41:35.818Z,38.95
2022-10-18T01:42:38.742Z,32.90
2022-10-18T01:43:43.643Z,39.80
2022-10-18T01:44:47.478Z,36.22
2022-10-18T01:45:51.569Z,38.35
2022-10-18T01:46:58.107Z,38.03
2022-10-18T01:48:01.669Z,42.17
2022-10-18T01:49:06.353Z,40.05
2022-10-18T01:50:09.863Z,42.78
2022-10-18T01:51:13.900Z,46.92
2022-10-18T01:52:17.279Z,34.50
2022-10-18T01:53:26.037Z,54.72
2022-10-18T01:54:32.049Z,59.50
2022-10-18T01:55:39.892Z,37.50
2022-10-18T01:56:48.465Z,44.25
2022-10-18T01:57:59.230Z,39.10
2022-10-18T01:59:09.128Z,74.45
2022-10-18T02:00:14.648Z,34.85
2022-10-18T02:01:22.140Z,40.88
2022-10-18T02:02:37.824Z,35.60
2022-10-18T02:03:44.512Z,36.90
2022-10-18T02:04:52.810Z,35.53
2022-10-18T02:05:59.518Z,40.17
2022-10-18T02:07:08.628Z,34.60
2022-10-18T02:08:23.707Z,45.47
2022-10-18T02:09:33.211Z,31.40
2022-10-18T02:10:40.460Z,33.35
2022-10-18T02:11:45.057Z,37.25
2022-10-18T02:12:48.991Z,57.75
2022-10-18T02:13:56.569Z,34.65
2022-10-18T02:15:01.110Z,45.15
2022-10-18T02:16:09.430Z,45.35
2022-10-18T02:17:13.266Z,36.03
2022-10-18T02:18:21.431Z,54.80
2022-10-18T02:19:26.984Z,34.30
2022-10-18T02:20:32.565Z,93.30
2022-10-18T02:21:35.683Z,54.53
2022-10-18T02:22:42.687Z,33.30
2022-10-18T02:23:46.982Z,28.95
2022-10-18T02:24:53.646Z,24.33
2022-10-18T02:25:56.690Z,43.00
2022-10-18T02:27:00.731Z,28.98
2022-10-18T02:28:05.508Z,28.08
2022-10-18T02:29:08.929Z,29.30
2022-10-18T02:30:15.589Z,28.13
2022-10-18T02:31:20.759Z,30.00
2022-10-18T02:32:29.183Z,27.02
2022-10-18T02:33:37.881Z,31.40
2022-10-18T02:34:44.881Z,24.88
2022-10-18T02:35:50.611Z,29.55
2022-10-18T02:36:55.847Z,29.40
2022-10-18T02:37:59.521Z,32.17
2022-10-18T02:39:05.798Z,27.38
2022-10-18T02:40:10.422Z,32.72
2022-10-18T02:41:14.430Z,33.33
2022-10-18T02:42:17.459Z,23.88
2022-10-18T02:43:21.397Z,32.35
2022-10-18T02:44:24.860Z,31.02
2022-10-18T02:45:28.909Z,32.50
2022-10-18T02:46:32.048Z,32.05
2022-10-18T02:47:36.039Z,33.15
2022-10-18T02:48:40.392Z,110.70
2022-10-18T02:49:44.399Z,55.90
2022-10-18T02:50:47.278Z,42.78
2022-10-18T02:51:51.261Z,155.25
2022-10-18T02:52:54.162Z,20.73
2022-10-18T02:53:58.740Z,23.20
2022-10-18T02:55:01.632Z,22.92
2022-10-18T02:56:06.034Z,20.67
2022-10-18T02:57:08.938Z,29.50
2022-10-18T02:58:13.058Z,19.13
2022-10-18T02:59:16.249Z,23.08
2022-10-18T03:00:20.489Z,28.08
2022-10-18T03:01:25.309Z,23.02
2022-10-18T03:02:29.470Z,55.50
2022-10-18T03:03:33.430Z,22.98
2022-10-18T03:04:39.125Z,22.25
2022-10-18T03:05:41.978Z,39.45
2022-10-18T03:06:46.409Z,26.33
2022-10-18T03:07:49.309Z,28.15
2022-10-18T03:08:53.317Z,43.40
2022-10-18T03:09:56.416Z,64.10
2022-10-18T03:11:00.659Z,46.47
2022-10-18T03:13:22.140Z,17.83
2022-10-18T03:14:25.397Z,19.08
2022-10-18T03:15:29.349Z,18.95
2022-10-18T03:16:32.459Z,21.95
2022-10-18T03:17:36.541Z,19.20
2022-10-18T03:18:39.500Z,20.10
2022-10-18T03:19:44.948Z,17.30
2022-10-18T03:20:48.082Z,17.17
2022-10-18T03:21:52.048Z,26.00
2022-10-18T03:22:55.090Z,25.48
2022-10-18T03:24:00.244Z,20.83
2022-10-18T03:25:03.379Z,22.70
2022-10-18T03:26:09.900Z,19.17
2022-10-18T03:27:12.861Z,28.85
2022-10-18T03:28:17.252Z,27.88
2022-10-18T03:29:20.810Z,33.25
2022-10-18T03:30:27.793Z,50.00
2022-10-18T03:32:40.460Z,37.15
2022-10-18T03:33:46.981Z,16.65
2022-10-18T03:34:52.408Z,48.88
2022-10-18T03:35:55.839Z,51.15
2022-10-18T03:37:02.146Z,95.75
2022-10-18T03:38:07.720Z,29.25
2022-10-18T03:39:13.279Z,20.35
2022-10-18T03:40:16.461Z,87.40
2022-10-18T03:41:21.092Z,25.40
2022-10-18T03:42:24.112Z,25.77
2022-10-18T03:43:28.594Z,17.92
2022-10-18T03:44:31.609Z,22.25
2022-10-18T03:45:35.751Z,23.30
2022-10-18T03:46:38.978Z,133.88
2022-10-18T03:47:43.603Z,21.33
2022-10-18T03:48:47.627Z,21.55
2022-10-18T03:49:56.246Z,27.58
2022-10-18T03:51:01.450Z,22.40
2022-10-18T03:52:04.357Z,29.08
2022-10-18T03:53:11.283Z,23.15
2022-10-18T03:54:14.490Z,24.95
2022-10-18T03:55:18.951Z,23.88
2022-10-18T03:56:21.820Z,26.80
2022-10-18T03:57:26.318Z,29.10
2022-10-18T03:58:29.242Z,103.18
2022-10-18T03:59:33.389Z,148.80
2022-10-18T04:00:39.256Z,108.15
2022-10-18T04:01:43.231Z,79.57
2022-10-18T04:02:50.800Z,77.95
2022-10-18T04:03:57.709Z,23.13
2022-10-18T04:05:02.262Z,23.63
2022-10-18T04:06:08.037Z,24.48
2022-10-18T04:07:11.177Z,37.80
2022-10-18T04:08:15.249Z,24.33
2022-10-18T04:09:18.651Z,20.33
2022-10-18T04:10:25.804Z,35.67
2022-10-18T04:11:28.667Z,33.83
2022-10-18T04:12:33.319Z,51.45
2022-10-18T04:13:36.609Z,43.05
2022-10-18T04:14:40.551Z,39.80
2022-10-18T04:15:43.899Z,32.92
2022-10-18T04:16:47.837Z,41.90
2022-10-18T04:17:51.019Z,46.67
2022-10-18T04:18:55.223Z,38.35
2022-10-18T04:19:58.452Z,42.03
2022-10-18T04:21:03.860Z,52.72
2022-10-18T04:22:06.887Z,71.25
2022-10-18T04:23:10.960Z,54.72
2022-10-18T04:24:14.352Z,36.30
2022-10-18T04:25:18.727Z,45.15
2022-10-18T04:26:22.050Z,28.00
2022-10-18T04:27:26.052Z,42.28
2022-10-18T04:28:29.196Z,28.08
2022-10-18T04:29:33.160Z,26.33
2022-10-18T04:30:36.399Z,27.15
2022-10-18T04:31:40.327Z,26.85
2022-10-18T04:32:43.266Z,29.60
2022-10-18T04:33:47.400Z,41.95
2022-10-18T04:34:50.816Z,29.60
2022-10-18T04:35:55.125Z,28.98
2022-10-18T04:37:00.529Z,29.65
2022-10-18T04:38:03.478Z,31.42
2022-10-18T04:39:07.427Z,28.13
2022-10-18T04:40:12.501Z,36.95
2022-10-18T04:41:16.517Z,34.53
2022-10-18T04:42:19.567Z,26.35
2022-10-18T04:43:23.505Z,30.13
2022-10-18T04:44:26.389Z,28.08
2022-10-18T04:45:30.449Z,28.60
2022-10-18T04:46:34.430Z,31.63
2022-10-18T04:47:38.700Z,38.13
2022-10-18T04:48:42.018Z,28.67
2022-10-18T04:49:46.845Z,27.17
2022-10-18T04:50:50.102Z,31.17
2022-10-18T04:51:54.250Z,24.40
2022-10-18T04:52:58.602Z,31.20
2022-10-18T04:54:02.561Z,30.10
2022-10-18T04:55:07.421Z,32.92
2022-10-18T04:56:10.365Z,31.83
2022-10-18T04:57:14.291Z,29.75
2022-10-18T04:58:17.538Z,25.10
2022-10-18T04:59:21.990Z,53.65
2022-10-18T05:00:25.608Z,28.52
2022-10-18T05:01:29.755Z,26.73
2022-10-18T05:02:32.881Z,22.75
2022-10-18T05:03:36.988Z,22.67
2022-10-18T05:04:40.038Z,34.22
2022-10-18T05:06:03.247Z,37.35
2022-10-18T05:07:06.810Z,39.00
2022-10-18T05:08:12.221Z,36.88
2022-10-18T05:09:15.538Z,30.17
2022-10-18T05:10:19.888Z,35.08
2022-10-18T05:11:22.986Z,49.00
2022-10-18T05:12:27.043Z,133.98
2022-10-18T05:13:30.483Z,38.05
2022-10-18T05:14:34.450Z,39.60
2022-10-18T05:15:37.357Z,42.70
2022-10-18T05:16:41.379Z,44.03
2022-10-18T05:17:44.409Z,57.28
2022-10-18T05:18:48.484Z,51.30
2022-10-18T05:19:51.381Z,68.70
2022-10-18T05:20:55.450Z,57.20
2022-10-18T05:21:58.454Z,44.83
2022-10-18T05:23:02.408Z,44.25
2022-10-18T05:24:07.177Z,56.65
2022-10-18T05:25:11.566Z,58.45
2022-10-18T05:26:14.510Z,49.40
2022-10-18T05:27:18.517Z,49.22
2022-10-18T05:28:38.763Z,51.67
2022-10-18T05:29:43.889Z,48.72
2022-10-18T05:30:46.893Z,43.50
2022-10-18T05:31:51.112Z,50.75
2022-10-18T05:32:54.946Z,80.97
2022-10-18T05:33:59.180Z,95.05
2022-10-18T05:35:02.499Z,41.80
2022-10-18T05:36:07.139Z,38.35
2022-10-18T05:37:10.367Z,54.20
2022-10-18T05:38:14.513Z,50.75
2022-10-18T05:39:20.499Z,49.47
2022-10-18T05:40:23.509Z,54.83
2022-10-18T05:41:27.617Z,55.92
2022-10-18T05:42:31.114Z,59.30
2022-10-18T05:43:36.100Z,63.25
2022-10-18T05:44:39.111Z,62.22
2022-10-18T05:45:49.165Z,94.20
2022-10-18T05:46:53.245Z,46.83
2022-10-18T05:47:56.390Z,51.25
2022-10-18T05:49:00.576Z,52.05
2022-10-18T05:50:03.761Z,55.50
2022-10-18T05:51:07.907Z,57.08
2022-10-18T05:52:10.808Z,58.95
2022-10-18T05:53:35.202Z,54.53
2022-10-18T05:54:40.161Z,57.53
2022-10-18T05:55:44.223Z,45.97
2022-10-18T05:56:47.327Z,50.17
2022-10-18T05:57:51.595Z,45.95
2022-10-18T05:58:54.619Z,40.55
2022-10-18T05:59:58.598Z,47.53
2022-10-18T06:01:02.384Z,46.97
2022-10-18T06:02:06.541Z,40.78
2022-10-18T06:03:09.449Z,46.25
2022-10-18T06:04:13.707Z,37.45
2022-10-18T06:05:16.757Z,34.17
2022-10-18T06:06:20.790Z,33.50
2022-10-18T06:07:23.786Z,36.63
2022-10-18T06:08:27.848Z,35.08
2022-10-18T06:09:30.907Z,33.13
2022-10-18T06:10:36.468Z,30.52
2022-10-18T06:11:39.430Z,26.58
2022-10-18T06:12:43.509Z,23.67
2022-10-18T06:13:48.813Z,24.08
2022-10-18T06:14:51.782Z,22.40
2022-10-18T06:15:57.725Z,26.52
2022-10-18T06:17:00.708Z,26.48
2022-10-18T06:18:04.781Z,32.50
2022-10-18T06:19:07.830Z,35.13
2022-10-18T06:20:12.337Z,35.60
2022-10-18T06:21:15.460Z,28.90
2022-10-18T06:22:19.582Z,32.72
2022-10-18T06:23:22.580Z,40.67
2022-10-18T06:24:26.888Z,46.47
2022-10-18T06:25:29.838Z,46.08
2022-10-18T06:26:35.328Z,30.38
2022-10-18T06:27:38.259Z,30.85
2022-10-18T06:28:42.281Z,23.67
2022-10-18T06:29:46.370Z,23.73
2022-10-18T06:30:49.441Z,19.90
2022-10-18T06:31:53.436Z,19.20
2022-10-18T06:32:59.793Z,19.58
2022-10-18T06:34:04.640Z,16.30
2022-10-18T06:35:08.632Z,16.63
2022-10-18T06:36:14.906Z,17.00
2022-10-18T06:37:18.010Z,14.40
2022-10-18T06:38:22.143Z,17.95
2022-10-18T06:39:26.357Z,15.80
2022-10-18T06:40:31.038Z,14.30
2022-10-18T06:41:36.483Z,17.52
2022-10-18T06:43:00.654Z,14.90
2022-10-18T06:44:14.117Z,14.85
2022-10-18T06:45:18.563Z,17.27
2022-10-18T06:46:22.490Z,12.63
2022-10-18T06:47:25.490Z,11.43
2022-10-18T06:48:29.428Z,13.60
2022-10-18T06:49:32.320Z,15.25
2022-10-18T06:50:36.389Z,17.95
2022-10-18T06:51:40.479Z,16.98
2022-10-18T06:52:43.660Z,23.20
2022-10-18T06:54:05.922Z,23.67
2022-10-18T06:55:11.819Z,28.23
2022-10-18T06:56:14.718Z,26.75
2022-10-18T06:57:20.491Z,24.55
2022-10-18T06:58:23.414Z,24.65
2022-10-18T06:59:30.374Z,18.15
2022-10-18T07:00:34.493Z,18.05
2022-10-18T07:01:38.690Z,18.77
2022-10-18T07:02:42.857Z,20.85
2022-10-18T07:03:46.762Z,20.73
2022-10-18T07:04:50.818Z,22.10
2022-10-18T07:05:53.795Z,22.13
2022-10-18T07:06:57.801Z,17.27
2022-10-18T07:08:00.751Z,15.70
2022-10-18T07:09:05.002Z,18.50
2022-10-18T07:10:11.190Z,13.13
2022-10-18T07:11:18.724Z,15.68
2022-10-18T07:12:23.186Z,14.13
2022-10-18T07:13:32.911Z,18.27
2022-10-18T07:14:36.310Z,15.27
2022-10-18T07:15:40.321Z,17.98
2022-10-18T07:16:44.386Z,21.75
2022-10-18T07:17:48.126Z,21.55
2022-10-18T07:18:53.398Z,18.60
2022-10-18T07:19:56.409Z,14.32
2022-10-18T07:21:03.081Z,14.68
2022-10-18T07:22:07.268Z,20.42
2022-10-18T07:23:11.947Z,26.77
2022-10-18T07:24:16.132Z,22.17
2022-10-18T07:25:19.117Z,16.30
2022-10-18T07:26:25.151Z,14.85
2022-10-18T07:27:30.942Z,17.17
2022-10-18T07:28:34.927Z,32.30
2022-10-18T07:29:39.929Z,17.98
2022-10-18T07:30:43.008Z,16.33
2022-10-18T07:31:47.278Z,11.13
2022-10-18T07:32:52.883Z,10.10
2022-10-18T07:33:55.780Z,10.32
2022-10-18T07:34:59.840Z,9.60
2022-10-18T07:36:03.201Z,10.98
2022-10-18T07:37:07.309Z,9.23
2022-10-18T07:38:10.440Z,13.05
2022-10-18T07:39:14.572Z,13.30
2022-10-18T07:40:17.758Z,12.70
2022-10-18T07:41:22.537Z,10.98
2022-10-18T07:42:25.800Z,9.70
2022-10-18T07:43:31.851Z,12.68
2022-10-18T07:44:34.909Z,12.55
2022-10-18T07:45:39.096Z,14.48
2022-10-18T07:46:43.240Z,10.57
2022-10-18T07:47:46.684Z,11.68
2022-10-18T07:48:51.311Z,11.75
2022-10-18T07:49:56.137Z,10.75
2022-10-18T07:51:00.537Z,9.82
2022-10-18T07:52:05.057Z,7.28
2022-10-18T07:53:08.096Z,10.23
2022-10-18T07:54:12.079Z,7.38
2022-10-18T07:55:16.370Z,12.88
2022-10-18T07:56:22.668Z,11.57
2022-10-18T07:57:26.760Z,10.60
2022-10-18T07:58:32.738Z,8.57
2022-10-18T07:59:37.022Z,9.25
2022-10-18T08:00:40.094Z,7.65
2022-10-18T08:01:44.250Z,13.77
2022-10-18T08:02:47.361Z,7.40
2022-10-18T08:03:53.180Z,11.75
2022-10-18T08:04:57.445Z,7.43
2022-10-18T08:06:00.570Z,8.55
2022-10-18T08:07:04.577Z,11.10
2022-10-18T08:08:08.182Z,27.10
2022-10-18T08:09:12.572Z,8.20
2022-10-18T08:10:15.776Z,8.55
2022-10-18T08:11:22.039Z,7.85
2022-10-18T08:12:26.008Z,8.15
2022-10-18T08:13:30.710Z,7.30
2022-10-18T08:14:34.728Z,7.68
2022-10-18T08:15:37.592Z,6.07
2022-10-18T08:16:41.652Z,7.07
2022-10-18T08:17:44.631Z,6.20
2022-10-18T08:18:48.640Z,10.30
2022-10-18T08:20:11.353Z,8.25
2022-10-18T08:21:18.163Z,9.35
2022-10-18T08:22:23.018Z,7.40
2022-10-18T08:23:27.128Z,6.88
2022-10-18T08:24:31.120Z,7.60
2022-10-18T08:25:34.115Z,8.02
2022-10-18T08:26:38.109Z,7.00
2022-10-18T08:27:41.009Z,7.63
2022-10-18T08:28:54.129Z,6.53
2022-10-18T08:30:03.050Z,5.75
2022-10-18T08:31:07.210Z,7.25
2022-10-18T08:32:11.228Z,10.90
2022-10-18T08:33:14.328Z,10.77
2022-10-18T08:34:19.792Z,10.20
2022-10-18T08:35:23.049Z,11.43
2022-10-18T08:36:27.430Z,10.82
2022-10-18T08:37:30.963Z,14.15
2022-10-18T08:38:35.548Z,9.68
2022-10-18T08:39:38.402Z,13.70
2022-10-18T08:40:44.937Z,16.50
2022-10-18T08:42:09.649Z,27.50
2022-10-18T08:43:21.747Z,10.57
2022-10-18T08:44:29.248Z,5.10
2022-10-18T08:45:43.126Z,5.65
2022-10-18T08:46:48.466Z,9.63
2022-10-18T08:47:54.059Z,9.88
2022-10-18T08:48:57.567Z,4.85
2022-10-18T08:50:04.128Z,5.85
2022-10-18T08:51:14.709Z,5.40
2022-10-18T08:52:31.476Z,7.18
2022-10-18T08:53:45.609Z,6.72
2022-10-18T08:54:54.889Z,5.78
2022-10-18T08:56:04.470Z,10.27
2022-10-18T08:57:15.238Z,7.50
2022-10-18T08:58:21.474Z,9.10
2022-10-18T08:59:25.876Z,12.80
2022-10-18T09:00:34.997Z,5.13
2022-10-18T09:01:44.702Z,17.90
2022-10-18T09:02:57.501Z,9.50
2022-10-18T09:04:19.601Z,10.93
2022-10-18T09:05:28.888Z,8.68
2022-10-18T09:06:34.406Z,6.28
2022-10-18T09:08:13.136Z,11.80
2022-10-18T09:09:25.087Z,8.90
2022-10-18T09:10:36.576Z,4.32
2022-10-18T09:11:52.348Z,5.45
2022-10-18T09:13:09.479Z,6.32
2022-10-18T09:14:46.118Z,7.28
2022-10-18T09:15:56.981Z,5.82
2022-10-18T09:17:09.548Z,12.23
2022-10-18T09:18:26.157Z,5.80
2022-10-18T09:19:39.679Z,7.53
2022-10-18T09:20:51.652Z,6.32
2022-10-18T09:21:57.124Z,7.43
2022-10-18T09:23:06.589Z,5.90
2022-10-18T09:24:13.636Z,6.18
2022-10-18T09:25:21.066Z,4.72
2022-10-18T09:26:26.377Z,16.88
2022-10-18T09:27:33.910Z,17.30
2022-10-18T09:28:43.322Z,11.50
2022-10-18T09:29:58.557Z,19.25
2022-10-18T09:31:08.597Z,10.43
2022-10-18T09:32:22.832Z,12.90
2022-10-18T09:33:35.257Z,7.50
2022-10-18T09:34:43.382Z,7.20
2022-10-18T09:35:51.368Z,6.65
2022-10-18T09:36:56.176Z,5.22
2022-10-18T09:38:04.059Z,6.13
2022-10-18T09:39:13.071Z,5.78
2022-10-18T09:40:19.127Z,7.55
2022-10-18T09:41:27.079Z,4.05
2022-10-18T09:42:33.394Z,10.50
2022-10-18T09:43:47.686Z,9.93
2022-10-18T09:44:54.727Z,10.13
2022-10-18T09:45:59.208Z,6.93
2022-10-18T09:47:13.409Z,5.43
2022-10-18T09:48:22.196Z,6.82
2022-10-18T09:49:31.487Z,6.18
2022-10-18T09:50:38.107Z,4.90
2022-10-18T09:51:43.609Z,4.30
2022-10-18T09:52:51.289Z,9.93
2022-10-18T09:54:04.572Z,4.85
2022-10-18T09:55:14.149Z,9.43
2022-10-18T09:56:21.817Z,4.57
2022-10-18T09:57:27.891Z,13.52
2022-10-18T09:58:41.944Z,6.68
2022-10-18T09:59:48.319Z,19.60
2022-10-18T10:00:52.344Z,6.63
2022-10-18T10:01:56.728Z,4.70
2022-10-18T10:03:01.599Z,8.77
2022-10-18T10:04:06.068Z,5.30
2022-10-18T10:05:14.133Z,14.32
2022-10-18T10:06:23.723Z,15.65
2022-10-18T10:07:32.672Z,5.25
2022-10-18T10:08:38.199Z,5.88
2022-10-18T10:09:46.352Z,5.40
2022-10-18T10:10:49.891Z,8.05
2022-10-18T10:11:55.859Z,4.70
2022-10-18T10:13:07.050Z,6.78
2022-10-18T10:14:13.870Z,11.48
2022-10-18T10:15:20.869Z,9.07
2022-10-18T10:16:24.057Z,9.07
2022-10-18T10:17:30.628Z,7.20
2022-10-18T10:18:38.546Z,5.65
2022-10-18T10:19:57.202Z,6.55
2022-10-18T10:21:03.441Z,6.20
2022-10-18T10:22:09.757Z,17.77
2022-10-18T10:23:20.119Z,6.82
2022-10-18T10:24:30.392Z,6.60
2022-10-18T10:25:36.088Z,3.40
2022-10-18T10:26:40.274Z,6.18
2022-10-18T10:27:46.129Z,9.90
2022-10-18T10:28:49.485Z,4.93
2022-10-18T10:30:04.199Z,6.03
2022-10-18T10:31:26.519Z,8.45
2022-10-18T10:32:31.881Z,7.93
2022-10-18T10:33:40.779Z,7.22
2022-10-18T10:34:44.968Z,5.60
2022-10-18T10:35:59.811Z,5.50
2022-10-18T10:37:03.019Z,5.38
2022-10-18T10:38:07.838Z,7.25
2022-10-18T10:39:18.549Z,5.13
2022-10-18T10:40:25.242Z,7.28
2022-10-18T10:42:59.935Z,13.40
2022-10-18T10:44:17.619Z,6.28
2022-10-18T10:45:21.088Z,25.80
2022-10-18T10:46:26.630Z,6.65
2022-10-18T10:47:32.168Z,4.65
2022-10-18T10:48:47.610Z,4.43
2022-10-18T10:49:50.581Z,7.68
2022-10-18T10:50:58.676Z,4.97
2022-10-18T10:52:26.310Z,11.73
2022-10-18T10:53:30.639Z,7.00
2022-10-18T10:54:36.936Z,12.27
2022-10-18T10:55:39.809Z,10.68
2022-10-18T10:56:54.226Z,10.65
2022-10-18T10:57:57.185Z,7.50
2022-10-18T10:59:08.646Z,4.15
2022-10-18T11:00:36.356Z,6.50
2022-10-18T11:01:40.370Z,8.60
2022-10-18T11:02:51.133Z,9.07
2022-10-18T11:04:26.115Z,6.72
2022-10-18T11:05:29.629Z,5.97
2022-10-18T11:06:50.097Z,4.97
2022-10-18T11:07:55.486Z,4.47
2022-10-18T11:09:00.619Z,10.07
2022-10-18T11:10:07.952Z,5.70
2022-10-18T11:11:20.633Z,5.00
2022-10-18T11:12:33.499Z,4.78
2022-10-18T11:13:56.994Z,4.23
2022-10-18T11:15:22.412Z,9.88
2022-10-18T11:16:32.988Z,6.07
2022-10-18T11:17:43.523Z,7.93
2022-10-18T11:18:50.910Z,20.37
2022-10-18T11:20:07.740Z,6.97
2022-10-18T11:21:13.661Z,7.53
2022-10-18T11:22:19.525Z,9.07
2022-10-18T11:23:27.419Z,8.50
2022-10-18T11:24:31.299Z,5.10
2022-10-18T11:25:49.255Z,4.25
2022-10-18T11:26:56.348Z,3.53
2022-10-18T11:28:03.291Z,6.13
2022-10-18T11:29:25.147Z,9.33
2022-10-18T11:30:38.098Z,7.72
2022-10-18T11:31:48.057Z,6.10
2022-10-18T11:32:58.858Z,4.90
2022-10-18T11:34:14.850Z,4.03
2022-10-18T11:35:34.579Z,6.45
2022-10-18T11:36:54.793Z,3.50
2022-10-18T11:38:15.626Z,4.65
2022-10-18T11:39:24.432Z,5.23
2022-10-18T11:40:43.889Z,6.55
2022-10-18T11:41:51.100Z,3.88
2022-10-18T11:42:59.310Z,10.00
2022-10-18T11:44:04.999Z,3.20
2022-10-18T11:45:19.459Z,5.20
2022-10-18T11:46:30.200Z,3.63
2022-10-18T11:47:39.958Z,4.67
2022-10-18T11:49:00.848Z,8.10
2022-10-18T11:50:12.318Z,3.63
2022-10-18T11:51:34.124Z,6.90
2022-10-18T11:52:47.364Z,3.97
2022-10-18T11:54:00.178Z,4.60
2022-10-18T11:55:17.671Z,5.95
2022-10-18T11:56:23.782Z,4.73
2022-10-18T11:57:41.191Z,8.57
2022-10-18T11:58:55.522Z,24.35
2022-10-18T12:00:04.452Z,8.40
2022-10-18T12:01:18.355Z,9.20
2022-10-18T12:02:39.971Z,4.17
2022-10-18T12:03:54.682Z,5.87
2022-10-18T12:06:32.078Z,2.92
2022-10-18T12:07:38.972Z,5.78
2022-10-18T12:08:45.048Z,5.63
2022-10-18T12:09:50.073Z,6.10
2022-10-18T12:11:05.525Z,9.13
2022-10-18T12:12:14.210Z,8.63
2022-10-18T12:13:19.699Z,4.33
2022-10-18T12:14:27.514Z,9.88
2022-10-18T12:15:32.267Z,7.87
2022-10-18T12:17:07.726Z,3.30
2022-10-18T12:18:06.085Z,3.50
2022-10-18T12:19:15.161Z,3.63
2022-10-18T12:20:24.789Z,31.83
2022-10-18T12:21:32.683Z,11.50
2022-10-18T12:22:38.728Z,6.80
2022-10-18T12:23:46.928Z,4.80
2022-10-18T12:24:50.182Z,6.43
2022-10-18T12:25:58.440Z,6.50
2022-10-18T12:27:03.066Z,4.43
2022-10-18T12:28:10.259Z,6.50
2022-10-18T12:29:19.947Z,4.80
2022-10-18T12:30:29.758Z,4.30
2022-10-18T12:31:39.034Z,4.03
2022-10-18T12:32:56.455Z,10.73
2022-10-18T12:34:25.811Z,4.37
2022-10-18T12:35:32.641Z,8.20
2022-10-18T12:36:51.806Z,5.23
2022-10-18T12:38:07.138Z,3.83
2022-10-18T12:39:14.427Z,3.47
2022-10-18T12:40:21.423Z,7.20
2022-10-18T12:41:27.501Z,4.20
2022-10-18T12:42:32.050Z,8.63
2022-10-18T12:43:37.882Z,6.57
2022-10-18T12:44:40.822Z,7.57
2022-10-18T12:45:53.628Z,5.80
2022-10-18T12:46:59.571Z,10.67
2022-10-18T12:48:05.058Z,6.60
2022-10-18T12:49:12.820Z,7.30
2022-10-18T12:50:28.610Z,7.57
2022-10-18T12:51:32.639Z,5.17
2022-10-18T12:52:37.417Z,6.40
2022-10-18T12:53:42.850Z,5.87
2022-10-18T12:55:04.490Z,9.40
2022-10-18T12:56:38.278Z,6.40
2022-10-18T12:58:15.672Z,5.23
2022-10-18T12:59:54.007Z,4.37
2022-10-18T13:00:58.871Z,6.50
2022-10-18T13:02:29.179Z,4.97
2022-10-18T13:04:01.279Z,5.20
2022-10-18T13:05:54.878Z,4.77
2022-10-18T13:07:19.884Z,12.03
2022-10-18T13:08:39.981Z,7.53
2022-10-18T13:09:46.369Z,4.33
2022-10-18T13:11:33.511Z,4.77
2022-10-18T13:12:59.017Z,4.90
2022-10-18T13:14:59.263Z,15.60
2022-10-18T13:17:01.655Z,6.57
2022-10-18T13:18:12.247Z,5.40
2022-10-18T13:19:22.169Z,3.87
2022-10-18T13:20:34.637Z,7.90
2022-10-18T13:21:44.617Z,4.67
2022-10-18T13:23:00.381Z,4.43
2022-10-18T13:24:18.397Z,5.50
2022-10-18T13:25:22.701Z,6.37
2022-10-18T13:26:32.749Z,5.33
2022-10-18T13:27:45.382Z,4.53
2022-10-18T13:28:54.797Z,6.63
2022-10-18T13:30:29.179Z,5.73
2022-10-18T13:31:40.398Z,6.23
2022-10-18T13:32:49.919Z,5.47
2022-10-18T13:33:54.028Z,6.40
2022-10-18T13:34:57.008Z,4.53
2022-10-18T13:36:02.450Z,4.70
2022-10-18T13:37:07.639Z,6.53
2022-10-18T13:38:48.689Z,10.80
2022-10-18T13:40:17.587Z,3.80
2022-10-18T13:42:34.088Z,3.90
2022-10-18T13:43:56.968Z,6.40
2022-10-18T13:45:37.762Z,8.57
2022-10-18T13:47:20.195Z,5.60
2022-10-18T13:48:49.269Z,4.07
2022-10-18T13:51:46.492Z,5.90
2022-10-18T13:53:29.919Z,5.03
2022-10-18T13:54:56.021Z,5.17
2022-10-18T13:56:18.899Z,40.33
2022-10-18T13:57:32.449Z,4.43
2022-10-18T13:58:48.740Z,4.30
2022-10-18T14:00:28.546Z,7.03
2022-10-18T14:01:41.746Z,6.70
2022-10-18T14:03:01.990Z,4.20
2022-10-18T14:05:11.120Z,6.10
2022-10-18T14:06:25.162Z,10.40
2022-10-18T14:07:28.539Z,4.97
2022-10-18T14:08:36.842Z,4.20
2022-10-18T14:09:49.867Z,5.73
2022-10-18T14:11:04.001Z,4.37
2022-10-18T14:12:15.139Z,5.97
2022-10-18T14:13:22.860Z,5.33
2022-10-18T14:14:34.198Z,5.83
2022-10-18T14:15:41.199Z,16.57
2022-10-18T14:16:48.277Z,5.40
2022-10-18T14:17:53.920Z,7.00
2022-10-18T14:19:01.938Z,37.80
2022-10-18T14:20:16.984Z,13.73
2022-10-18T14:21:30.257Z,6.25
2022-10-18T14:22:39.470Z,46.63
2022-10-18T14:23:44.858Z,20.83
2022-10-18T14:24:51.454Z,4.47
2022-10-18T14:25:58.869Z,9.80
2022-10-18T14:27:20.898Z,4.63
2022-10-18T14:28:36.325Z,5.68
2022-10-18T14:29:46.179Z,6.38
2022-10-18T14:30:53.827Z,6.30
2022-10-18T14:31:58.620Z,6.63
2022-10-18T14:33:01.796Z,6.23
2022-10-18T14:34:05.756Z,6.43
2022-10-18T14:35:33.648Z,7.80
2022-10-18T14:36:41.116Z,6.57
2022-10-18T14:37:44.094Z,5.93
2022-10-18T14:38:50.998Z,8.37
2022-10-18T14:39:53.940Z,5.57
2022-10-18T14:41:13.062Z,5.40
2022-10-18T14:42:21.880Z,7.47
2022-10-18T14:43:25.755Z,6.93
2022-10-18T14:44:31.719Z,11.57
2022-10-18T14:45:34.720Z,5.67
2022-10-18T14:46:43.469Z,6.73
2022-10-18T14:47:46.484Z,10.03
2022-10-18T14:48:54.989Z,10.33
2022-10-18T14:49:59.020Z,6.53
2022-10-18T14:51:04.418Z,10.13
2022-10-18T14:52:13.846Z,7.20
2022-10-18T14:53:20.818Z,14.53
2022-10-18T14:54:30.733Z,8.93
2022-10-18T14:55:35.840Z,7.97
2022-10-18T14:56:42.128Z,6.68